createdAt,value
2023-05-17T00:00:46.075Z,10.55
2023-05-17T00:03:12.579Z,9.98
2023-05-17T00:05:39.077Z,10.68
2023-05-17T00:08:05.791Z,11.05
2023-05-17T00:10:32.295Z,9.45
2023-05-17T00:12:58.862Z,10.15
2023-05-17T00:15:27.978Z,9.93
2023-05-17T00:17:57.598Z,9.40
2023-05-17T00:20:24.178Z,9.25
2023-05-17T00:22:50.626Z,9.40
2023-05-17T00:25:17.111Z,9.15
2023-05-17T00:27:43.643Z,9.27
2023-05-17T00:30:10.236Z,9.27
2023-05-17T00:32:36.772Z,9.65
2023-05-17T00:35:03.534Z,9.60
2023-05-17T00:37:30.031Z,9.10
2023-05-17T00:39:56.439Z,8.75
2023-05-17T00:42:25.394Z,9.38
2023-05-17T00:44:51.850Z,8.95
2023-05-17T00:47:18.289Z,8.35
2023-05-17T00:49:45.646Z,9.10
2023-05-17T00:52:12.157Z,9.13
2023-05-17T00:54:39.321Z,9.00
2023-05-17T00:57:06.119Z,9.32
2023-05-17T00:59:32.584Z,9.18
2023-05-17T01:01:59.419Z,7.95
2023-05-17T01:04:25.885Z,8.10
2023-05-17T01:06:52.350Z,8.10
2023-05-17T01:09:18.970Z,8.30
2023-05-17T01:11:48.163Z,8.60
2023-05-17T01:14:24.526Z,8.35
2023-05-17T01:17:01.162Z,8.02
2023-05-17T01:19:27.717Z,7.93
2023-05-17T01:22:00.576Z,8.10
2023-05-17T01:24:27.085Z,8.82
2023-05-17T01:26:56.383Z,8.13
2023-05-17T01:29:25.841Z,8.10
2023-05-17T01:31:55.723Z,9.10
2023-05-17T01:34:28.877Z,7.65
2023-05-17T01:36:55.440Z,7.15
2023-05-17T01:39:21.988Z,7.20
2023-05-17T01:41:55.194Z,7.88
2023-05-17T01:44:28.480Z,6.55
2023-05-17T01:46:59.705Z,6.25
2023-05-17T01:49:38.378Z,6.63
2023-05-17T01:52:04.798Z,6.60
2023-05-17T01:54:39.649Z,6.20
2023-05-17T01:57:07.019Z,6.85
2023-05-17T01:59:36.339Z,6.22
2023-05-17T02:02:06.329Z,7.00
2023-05-17T02:04:32.910Z,6.80
2023-05-17T02:06:59.382Z,6.78
2023-05-17T02:09:25.847Z,6.55
2023-05-17T02:11:52.256Z,6.35
2023-05-17T02:14:18.655Z,6.35
2023-05-17T02:16:47.581Z,5.93
2023-05-17T02:19:16.454Z,6.18
2023-05-17T02:21:42.902Z,6.25
2023-05-17T02:24:09.303Z,5.82
2023-05-17T02:26:35.757Z,5.63
2023-05-17T02:29:02.194Z,5.80
2023-05-17T02:31:28.639Z,5.85
2023-05-17T02:33:55.198Z,5.53
2023-05-17T02:36:21.761Z,5.40
2023-05-17T02:38:48.225Z,5.70
2023-05-17T02:41:17.037Z,5.35
2023-05-17T02:43:43.631Z,5.00
2023-05-17T02:46:10.054Z,5.32
2023-05-17T02:48:36.590Z,5.05
2023-05-17T02:51:03.042Z,5.13
2023-05-17T02:53:29.496Z,4.57
2023-05-17T02:55:58.158Z,5.65
2023-05-17T02:58:25.090Z,4.75
2023-05-17T03:00:54.178Z,4.68
2023-05-17T03:03:20.752Z,5.03
2023-05-17T03:05:47.334Z,4.45
2023-05-17T03:08:13.805Z,4.50
2023-05-17T03:10:40.241Z,4.50
2023-05-17T03:13:06.691Z,4.68
2023-05-17T03:15:33.211Z,4.63
2023-05-17T03:18:00.103Z,4.50
2023-05-17T03:20:26.653Z,4.78
2023-05-17T03:22:53.062Z,4.93
2023-05-17T03:25:19.510Z,4.25
2023-05-17T03:27:46.138Z,4.82
2023-05-17T03:30:15.105Z,4.63
2023-05-17T03:32:41.896Z,4.47
2023-05-17T03:35:08.786Z,4.50
2023-05-17T03:37:35.326Z,4.40
2023-05-17T03:40:02.340Z,4.35
2023-05-17T03:42:28.791Z,4.80
2023-05-17T03:44:55.312Z,4.60
2023-05-17T03:47:24.735Z,5.50
2023-05-17T03:49:51.447Z,4.80
2023-05-17T03:52:17.903Z,5.50
2023-05-17T03:54:45.290Z,4.28
2023-05-17T03:57:13.465Z,4.63
2023-05-17T03:59:39.913Z,4.32
2023-05-17T04:02:06.694Z,3.85
2023-05-17T04:04:33.145Z,4.10
2023-05-17T04:06:59.661Z,4.38
2023-05-17T04:09:26.148Z,3.75
2023-05-17T04:11:52.564Z,4.25
2023-05-17T04:14:19.561Z,4.05
2023-05-17T04:16:46.013Z,4.05
2023-05-17T04:19:12.873Z,4.28
2023-05-17T04:21:39.397Z,3.60
2023-05-17T04:24:05.963Z,3.60
2023-05-17T04:26:34.788Z,3.72
2023-05-17T04:29:01.483Z,3.75
2023-05-17T04:31:31.945Z,3.30
2023-05-17T04:33:58.825Z,3.90
2023-05-17T04:36:25.563Z,3.60
2023-05-17T04:38:52.029Z,3.20
2023-05-17T04:41:18.416Z,3.00
2023-05-17T04:43:44.825Z,3.40
2023-05-17T04:46:13.776Z,3.17
2023-05-17T04:48:40.455Z,2.72
2023-05-17T04:51:07.391Z,3.15
2023-05-17T04:53:34.011Z,3.00
2023-05-17T04:56:00.510Z,3.00
2023-05-17T04:58:26.968Z,3.35
2023-05-17T05:00:53.399Z,3.70
2023-05-17T05:03:19.933Z,2.92
2023-05-17T05:05:46.482Z,3.20
2023-05-17T05:08:12.972Z,2.97
2023-05-17T05:14:34.702Z,2.92
2023-05-17T05:17:01.214Z,3.40
2023-05-17T05:19:28.451Z,3.63
2023-05-17T05:21:54.949Z,3.05
2023-05-17T05:24:21.489Z,3.10
2023-05-17T05:26:48.151Z,3.33
2023-05-17T05:29:14.637Z,3.40
2023-05-17T05:31:41.124Z,3.20
2023-05-17T05:34:07.730Z,3.50
2023-05-17T05:36:34.601Z,3.60
2023-05-17T05:39:01.234Z,3.00
2023-05-17T05:41:27.748Z,3.67
2023-05-17T05:43:54.275Z,3.88
2023-05-17T05:46:20.898Z,3.20
2023-05-17T05:48:47.468Z,4.03
2023-05-17T05:51:14.032Z,3.45
2023-05-17T05:53:42.632Z,3.70
2023-05-17T05:56:09.658Z,3.35
2023-05-17T05:58:38.570Z,3.28
2023-05-17T06:01:06.529Z,3.67
2023-05-17T06:03:33.128Z,3.55
2023-05-17T06:05:59.696Z,3.10
2023-05-17T06:08:26.238Z,3.20
2023-05-17T06:10:55.122Z,3.05
2023-05-17T06:13:21.878Z,2.70
2023-05-17T06:15:51.255Z,3.00
2023-05-17T06:18:17.867Z,3.10
2023-05-17T06:20:44.418Z,2.85
2023-05-17T06:23:10.984Z,3.13
2023-05-17T06:25:37.542Z,3.17
2023-05-17T06:28:04.388Z,3.20
2023-05-17T06:30:31.426Z,2.83
2023-05-17T06:33:00.667Z,2.50
2023-05-17T06:35:27.378Z,2.50
2023-05-17T06:37:54.041Z,2.90
2023-05-17T06:40:20.755Z,2.75
2023-05-17T06:42:47.232Z,3.25
2023-05-17T06:45:13.733Z,2.72
2023-05-17T06:47:40.395Z,3.40
2023-05-17T06:50:09.737Z,2.83
2023-05-17T06:52:36.295Z,5.78
2023-05-17T06:55:02.900Z,2.80
2023-05-17T06:57:29.379Z,2.80
2023-05-17T06:59:55.958Z,2.70
2023-05-17T07:02:22.431Z,2.60
2023-05-17T07:04:48.940Z,2.45
2023-05-17T07:07:15.477Z,2.30
2023-05-17T07:09:42.057Z,2.53
2023-05-17T07:12:08.561Z,2.65
2023-05-17T07:14:35.085Z,2.67
2023-05-17T07:17:01.644Z,2.63
2023-05-17T07:19:28.263Z,2.47
2023-05-17T07:21:56.035Z,2.70
2023-05-17T07:24:22.836Z,3.15
2023-05-17T07:26:52.665Z,2.45
2023-05-17T07:29:21.737Z,2.97
2023-05-17T07:31:50.783Z,2.70
2023-05-17T07:34:17.285Z,2.50
2023-05-17T07:36:46.083Z,3.30
2023-05-17T07:39:12.757Z,3.58
2023-05-17T07:41:39.737Z,2.45
2023-05-17T07:44:06.343Z,2.53
2023-05-17T07:46:32.924Z,2.95
2023-05-17T07:48:59.471Z,2.85
2023-05-17T07:51:26.427Z,2.15
2023-05-17T07:53:52.980Z,2.90
2023-05-17T07:56:19.473Z,2.88
2023-05-17T07:58:45.959Z,2.67
2023-05-17T08:01:14.618Z,2.67
2023-05-17T08:03:47.793Z,2.65
2023-05-17T08:06:17.794Z,2.40
2023-05-17T08:08:44.507Z,3.25
2023-05-17T08:11:11.612Z,2.50
2023-05-17T08:13:38.242Z,2.22
2023-05-17T08:16:13.746Z,2.40
2023-05-17T08:18:42.072Z,2.05
2023-05-17T08:21:08.748Z,2.88
2023-05-17T08:23:35.247Z,2.20
2023-05-17T08:26:01.765Z,2.30
2023-05-17T08:28:28.527Z,2.40
2023-05-17T08:30:55.040Z,2.10
2023-05-17T08:33:22.587Z,2.22
2023-05-17T08:35:52.920Z,1.77
2023-05-17T08:38:20.800Z,2.47
2023-05-17T08:40:56.504Z,1.80
2023-05-17T08:43:26.688Z,2.40
2023-05-17T08:45:54.458Z,2.70
2023-05-17T08:48:21.061Z,2.10
2023-05-17T08:50:48.731Z,2.80
2023-05-17T08:53:19.154Z,2.10
2023-05-17T08:55:48.959Z,2.72
2023-05-17T08:58:19.184Z,2.53
2023-05-17T09:00:46.272Z,2.53
2023-05-17T09:03:15.892Z,2.25
2023-05-17T09:05:43.407Z,3.50
2023-05-17T09:08:13.888Z,2.22
2023-05-17T09:10:41.023Z,2.80
2023-05-17T09:13:10.274Z,2.78
2023-05-17T09:15:37.992Z,2.95
2023-05-17T09:18:04.572Z,2.83
2023-05-17T09:20:35.096Z,2.72
2023-05-17T09:23:02.065Z,2.42
2023-05-17T09:25:29.329Z,2.38
2023-05-17T09:27:58.738Z,2.92
2023-05-17T09:30:32.079Z,2.83
2023-05-17T09:33:04.825Z,2.67
2023-05-17T09:35:31.695Z,2.10
2023-05-17T09:38:12.537Z,2.55
2023-05-17T09:40:45.327Z,2.45
2023-05-17T09:43:12.440Z,2.72
2023-05-17T09:45:39.291Z,3.20
2023-05-17T09:48:18.746Z,2.45
2023-05-17T09:50:46.222Z,2.90
2023-05-17T09:53:22.796Z,2.33
2023-05-17T09:55:49.263Z,2.25
2023-05-17T09:58:15.945Z,2.50
2023-05-17T10:00:43.096Z,1.90
2023-05-17T10:03:12.034Z,2.20
2023-05-17T10:05:40.541Z,2.50
2023-05-17T10:08:07.349Z,2.20
2023-05-17T10:10:34.218Z,2.20
2023-05-17T10:13:00.946Z,2.00
2023-05-17T10:15:27.985Z,2.40
2023-05-17T10:17:54.680Z,1.83
2023-05-17T10:20:21.357Z,2.20
2023-05-17T10:22:48.700Z,1.58
2023-05-17T10:25:15.399Z,1.70
2023-05-17T10:27:41.957Z,2.05
2023-05-17T10:30:09.040Z,2.00
2023-05-17T10:32:36.384Z,2.55
2023-05-17T10:35:11.427Z,1.98
2023-05-17T10:37:39.777Z,2.25
2023-05-17T10:40:06.547Z,1.90
2023-05-17T10:42:35.519Z,1.98
2023-05-17T10:45:01.969Z,2.28
2023-05-17T10:47:34.668Z,2.05
2023-05-17T10:50:01.610Z,1.93
2023-05-17T10:52:28.064Z,1.80
2023-05-17T10:54:55.248Z,1.80
2023-05-17T10:57:49.278Z,1.83
2023-05-17T11:00:26.182Z,1.80
2023-05-17T11:03:10.530Z,2.10
2023-05-17T11:05:37.046Z,2.00
2023-05-17T11:08:17.280Z,2.22
2023-05-17T11:11:07.800Z,2.05
2023-05-17T11:13:36.476Z,2.05
2023-05-17T11:16:04.582Z,1.83
2023-05-17T11:18:50.443Z,1.95
2023-05-17T11:21:17.261Z,2.15
2023-05-17T11:23:44.732Z,2.45
2023-05-17T11:26:21.587Z,1.85
2023-05-17T11:28:48.186Z,1.88
2023-05-17T11:31:14.739Z,2.25
2023-05-17T11:33:44.922Z,1.98
2023-05-17T11:36:15.828Z,2.00
2023-05-17T11:38:42.285Z,1.65
2023-05-17T11:43:51.985Z,1.80
2023-05-17T11:46:20.004Z,1.70
2023-05-17T11:48:47.165Z,2.13
2023-05-17T11:51:17.322Z,1.90
2023-05-17T11:53:47.453Z,1.80
2023-05-17T11:56:15.038Z,2.22
2023-05-17T11:58:42.723Z,2.78
2023-05-17T12:01:09.467Z,1.95
2023-05-17T12:03:36.134Z,2.22
2023-05-17T12:06:10.092Z,2.30
2023-05-17T12:08:38.093Z,2.25
2023-05-17T12:11:17.812Z,1.98
2023-05-17T12:13:47.237Z,1.83
2023-05-17T12:16:17.603Z,2.13
2023-05-17T12:18:46.147Z,1.90
2023-05-17T12:21:15.838Z,1.88
2023-05-17T12:23:47.851Z,2.00
2023-05-17T12:26:18.754Z,1.83
2023-05-17T12:29:05.387Z,1.83
2023-05-17T12:31:34.649Z,2.25
2023-05-17T12:34:03.985Z,2.00
2023-05-17T12:36:31.897Z,2.13
2023-05-17T12:38:58.308Z,2.17
2023-05-17T12:41:26.239Z,1.98
2023-05-17T12:43:54.998Z,1.90
2023-05-17T12:46:30.020Z,2.25
2023-05-17T12:49:01.325Z,2.10
2023-05-17T12:51:28.071Z,2.00
2023-05-17T12:53:59.943Z,1.80
2023-05-17T12:56:31.890Z,2.20
2023-05-17T12:59:14.718Z,1.70
2023-05-17T13:01:45.408Z,2.03
2023-05-17T13:04:12.528Z,1.75
2023-05-17T13:06:51.098Z,1.70
2023-05-17T13:09:18.683Z,2.08
2023-05-17T13:11:51.404Z,2.03
2023-05-17T13:14:37.728Z,2.05
2023-05-17T13:17:04.941Z,1.77
2023-05-17T13:19:31.505Z,2.15
2023-05-17T13:21:58.003Z,1.80
2023-05-17T13:24:25.504Z,2.13
2023-05-17T13:26:52.508Z,2.08
2023-05-17T13:29:22.879Z,2.00
2023-05-17T13:31:55.022Z,2.00
2023-05-17T13:34:21.466Z,1.90
2023-05-17T13:36:48.293Z,2.17
2023-05-17T13:39:15.637Z,1.67
2023-05-17T13:41:42.576Z,1.70
2023-05-17T13:44:09.870Z,2.05
2023-05-17T13:46:36.639Z,1.60
2023-05-17T13:49:04.687Z,1.92
2023-05-17T13:51:31.380Z,2.10
2023-05-17T13:53:57.840Z,2.38
2023-05-17T13:56:24.237Z,2.05
2023-05-17T13:58:53.141Z,1.90
2023-05-17T14:01:22.056Z,1.92
2023-05-17T14:03:48.561Z,1.80
2023-05-17T14:06:15.006Z,1.75
2023-05-17T14:08:41.655Z,1.88
2023-05-17T14:11:08.118Z,2.22
2023-05-17T14:13:37.360Z,2.15
2023-05-17T14:16:04.075Z,2.03
2023-05-17T14:18:32.580Z,2.20
2023-05-17T14:20:59.261Z,2.60
2023-05-17T14:23:26.087Z,2.20
2023-05-17T14:25:52.634Z,2.20
2023-05-17T14:28:19.170Z,2.05
2023-05-17T14:30:45.850Z,2.20
2023-05-17T14:33:12.422Z,2.08
2023-05-17T14:35:38.943Z,2.20
2023-05-17T14:38:05.507Z,2.28
2023-05-17T14:40:32.715Z,2.17
2023-05-17T14:42:59.130Z,2.20
2023-05-17T14:45:25.698Z,2.42
2023-05-17T14:47:52.809Z,2.08
2023-05-17T14:50:19.567Z,2.45
2023-05-17T14:52:46.019Z,2.03
2023-05-17T14:55:12.501Z,2.33
2023-05-17T14:57:40.212Z,2.47
2023-05-17T15:00:10.421Z,2.20
2023-05-17T15:02:37.143Z,2.28
2023-05-17T15:05:04.227Z,2.50
2023-05-17T15:07:30.782Z,1.55
2023-05-17T15:09:57.158Z,1.98
2023-05-17T15:12:25.992Z,2.05
2023-05-17T15:14:52.461Z,1.92
2023-05-17T15:17:18.894Z,1.90
2023-05-17T15:19:45.367Z,2.08
2023-05-17T15:22:12.001Z,1.83
2023-05-17T15:24:39.573Z,2.22
2023-05-17T15:27:06.153Z,2.45
2023-05-17T15:29:32.674Z,2.50
2023-05-17T15:31:59.248Z,2.20
2023-05-17T15:34:27.034Z,2.20
2023-05-17T15:36:55.123Z,3.78
2023-05-17T15:39:21.836Z,4.20
2023-05-17T15:41:48.248Z,4.25
2023-05-17T15:44:14.619Z,3.13
2023-05-17T15:46:41.231Z,4.45
2023-05-17T15:49:07.709Z,5.25
2023-05-17T15:51:34.166Z,3.67
2023-05-17T15:54:00.648Z,2.70
2023-05-17T15:56:27.280Z,3.55
2023-05-17T15:58:53.700Z,3.15
2023-05-17T16:01:20.432Z,3.25
2023-05-17T16:03:46.973Z,2.00
2023-05-17T16:06:14.503Z,2.10
2023-05-17T16:08:41.400Z,1.70
2023-05-17T16:11:08.100Z,1.80
2023-05-17T16:13:34.502Z,1.98
2023-05-17T16:16:01.129Z,2.00
2023-05-17T16:18:31.269Z,2.83
2023-05-17T16:20:58.665Z,2.38
2023-05-17T16:23:25.158Z,1.92
2023-05-17T16:25:52.035Z,1.90
2023-05-17T16:28:21.629Z,2.10
2023-05-17T16:30:49.084Z,2.05
2023-05-17T16:33:16.237Z,1.75
2023-05-17T16:35:43.185Z,2.22
2023-05-17T16:38:09.579Z,2.00
2023-05-17T16:40:36.157Z,2.03
2023-05-17T16:43:02.572Z,2.17
2023-05-17T16:45:29.123Z,1.88
2023-05-17T16:47:55.796Z,2.10
2023-05-17T16:50:22.325Z,2.97
2023-05-17T16:52:48.731Z,2.10
2023-05-17T16:55:15.251Z,2.00
2023-05-17T16:57:42.062Z,2.10
2023-05-17T17:00:08.827Z,3.20
2023-05-17T17:02:35.321Z,2.72
2023-05-17T17:05:03.200Z,4.60
2023-05-17T17:07:29.667Z,2.88
2023-05-17T17:09:56.182Z,1.80
2023-05-17T17:12:25.289Z,2.60
2023-05-17T17:14:53.064Z,1.88
2023-05-17T17:17:19.531Z,2.67
2023-05-17T17:19:46.043Z,2.30
2023-05-17T17:22:14.643Z,2.60
2023-05-17T17:24:41.201Z,14.38
2023-05-17T17:27:07.711Z,3.53
2023-05-17T17:29:34.171Z,3.25
2023-05-17T17:32:00.800Z,3.13
2023-05-17T17:34:27.449Z,2.67
2023-05-17T17:36:54.012Z,2.65
2023-05-17T17:39:20.503Z,2.75
2023-05-17T17:41:47.285Z,2.50
2023-05-17T17:44:13.791Z,2.53
2023-05-17T17:46:40.236Z,2.88
2023-05-17T17:49:06.677Z,3.97
2023-05-17T17:51:33.107Z,5.43
2023-05-17T17:54:03.676Z,3.50
2023-05-17T17:56:30.140Z,2.22
2023-05-17T17:58:56.531Z,2.22
2023-05-17T18:01:23.184Z,2.58
2023-05-17T18:03:49.655Z,2.47
2023-05-17T18:06:19.451Z,2.15
2023-05-17T18:08:46.447Z,2.45
2023-05-17T18:11:13.000Z,2.22
2023-05-17T18:13:39.442Z,2.30
2023-05-17T18:16:06.086Z,3.30
2023-05-17T18:18:36.928Z,3.15
2023-05-17T18:21:06.155Z,3.33
2023-05-17T18:23:33.904Z,3.70
2023-05-17T18:26:00.428Z,3.03
2023-05-17T18:28:38.171Z,2.78
2023-05-17T18:31:08.153Z,2.95
2023-05-17T18:33:34.881Z,2.75
2023-05-17T18:36:01.544Z,2.78
2023-05-17T18:38:28.548Z,3.10
2023-05-17T18:40:54.969Z,3.25
2023-05-17T18:43:21.410Z,7.60
2023-05-17T18:45:47.948Z,4.47
2023-05-17T18:48:14.476Z,4.05
2023-05-17T18:50:40.924Z,4.82
2023-05-17T18:53:07.367Z,4.47
2023-05-17T18:55:33.950Z,3.33
2023-05-17T18:58:00.639Z,3.97
2023-05-17T19:00:27.255Z,2.90
2023-05-17T19:02:53.857Z,3.38
2023-05-17T19:05:20.395Z,3.35
2023-05-17T19:07:46.857Z,2.70
2023-05-17T19:10:13.315Z,3.13
2023-05-17T19:12:39.762Z,3.80
2023-05-17T19:15:06.443Z,3.75
2023-05-17T19:17:33.080Z,3.67
2023-05-17T19:19:59.617Z,3.15
2023-05-17T19:22:26.053Z,3.22
2023-05-17T19:24:52.530Z,3.75
2023-05-17T19:27:19.893Z,3.38
2023-05-17T19:29:49.457Z,2.95
2023-05-17T19:32:15.959Z,3.90
2023-05-17T19:34:42.476Z,2.83
2023-05-17T19:37:09.006Z,3.20
2023-05-17T19:39:38.032Z,3.83
2023-05-17T19:42:04.649Z,4.13
2023-05-17T19:44:31.385Z,3.63
2023-05-17T19:46:57.816Z,3.47
2023-05-17T19:49:25.094Z,3.60
2023-05-17T19:51:54.052Z,3.65
2023-05-17T19:54:21.950Z,3.03
2023-05-17T19:56:50.897Z,3.20
2023-05-17T19:59:17.394Z,3.53
2023-05-17T20:01:43.893Z,3.78
2023-05-17T20:04:10.664Z,4.03
2023-05-17T20:06:37.232Z,3.67
2023-05-17T20:09:04.280Z,3.80
2023-05-17T20:11:30.970Z,3.40
2023-05-17T20:13:57.612Z,2.80
2023-05-17T20:16:27.921Z,3.30
2023-05-17T20:18:55.095Z,3.38
2023-05-17T20:21:22.904Z,3.75
2023-05-17T20:23:51.507Z,3.58
2023-05-17T20:26:19.110Z,3.45
2023-05-17T20:28:45.775Z,3.17
2023-05-17T20:31:12.404Z,3.10
2023-05-17T20:33:39.004Z,2.95
2023-05-17T20:36:09.981Z,3.17
2023-05-17T20:38:36.438Z,3.30
2023-05-17T20:41:06.537Z,3.55
2023-05-17T20:43:34.436Z,3.20
2023-05-17T20:46:01.412Z,3.60
2023-05-17T20:48:27.960Z,3.45
2023-05-17T20:50:54.971Z,2.83
2023-05-17T20:53:21.524Z,4.07
2023-05-17T20:55:49.281Z,3.38
2023-05-17T20:58:15.737Z,4.80
2023-05-17T21:00:42.208Z,3.50
2023-05-17T21:03:09.720Z,3.30
2023-05-17T21:05:38.456Z,3.13
2023-05-17T21:08:05.538Z,3.38
2023-05-17T21:10:36.137Z,3.28
2023-05-17T21:13:02.582Z,3.38
2023-05-17T21:15:28.988Z,2.70
2023-05-17T21:17:55.540Z,2.97
2023-05-17T21:20:23.788Z,2.83
2023-05-17T21:22:51.211Z,3.20
2023-05-17T21:25:17.656Z,2.85
2023-05-17T21:27:44.096Z,2.95
2023-05-17T21:30:10.677Z,3.00
2023-05-17T21:32:37.173Z,2.60
2023-05-17T21:35:03.708Z,2.70
2023-05-17T21:37:30.560Z,3.00
2023-05-17T21:39:57.008Z,3.90
2023-05-17T21:42:23.564Z,4.95
2023-05-17T21:44:49.985Z,5.47
2023-05-17T21:47:16.515Z,3.47
2023-05-17T21:49:43.598Z,3.70
2023-05-17T21:52:10.028Z,3.38
2023-05-17T21:54:36.538Z,3.08
2023-05-17T21:57:03.060Z,3.28
2023-05-17T21:59:31.686Z,3.50
2023-05-17T22:01:58.146Z,3.55
2023-05-17T22:04:24.746Z,4.13
2023-05-17T22:06:51.545Z,4.20
2023-05-17T22:09:19.080Z,4.30
2023-05-17T22:11:46.160Z,3.97
2023-05-17T22:14:15.322Z,3.38
2023-05-17T22:16:44.477Z,4.20
2023-05-17T22:19:11.340Z,4.40
2023-05-17T22:21:37.864Z,4.38
2023-05-17T22:24:04.327Z,4.35
2023-05-17T22:26:30.859Z,3.90
2023-05-17T22:28:57.348Z,3.40
2023-05-17T22:31:23.751Z,2.85
2023-05-17T22:33:52.060Z,3.00
2023-05-17T22:36:19.131Z,2.92
2023-05-17T22:38:45.637Z,3.33
2023-05-17T22:41:12.365Z,2.95
2023-05-17T22:43:39.224Z,3.03
2023-05-17T22:46:05.933Z,3.10
2023-05-17T22:48:32.449Z,3.25
2023-05-17T22:51:02.010Z,2.90
2023-05-17T22:53:31.642Z,3.55
2023-05-17T22:55:58.209Z,3.70
2023-05-17T22:58:24.662Z,4.28
2023-05-17T23:00:51.479Z,3.63
2023-05-17T23:03:21.336Z,3.67
2023-05-17T23:05:47.995Z,4.40
2023-05-17T23:08:17.296Z,5.45
2023-05-17T23:10:46.812Z,3.85
2023-05-17T23:13:13.819Z,4.00
2023-05-17T23:15:40.845Z,3.35
2023-05-17T23:18:09.568Z,3.50
2023-05-17T23:20:36.079Z,3.17
2023-05-17T23:23:02.517Z,2.92
2023-05-17T23:25:29.693Z,3.05
2023-05-17T23:27:58.053Z,3.30
2023-05-17T23:30:24.799Z,3.40
2023-05-17T23:32:52.083Z,3.58
2023-05-17T23:35:18.769Z,3.13
2023-05-17T23:37:45.260Z,3.17
2023-05-17T23:40:12.093Z,3.20
2023-05-17T23:42:38.503Z,3.13
2023-05-17T23:45:05.182Z,3.20
2023-05-17T23:47:33.585Z,3.08
2023-05-17T23:50:00.200Z,3.35
2023-05-17T23:52:30.019Z,3.28
2023-05-17T23:54:59.271Z,2.80
2023-05-17T23:57:25.783Z,3.00
2023-05-17T23:59:52.209Z,2.85
